Zuni Pueblo, New Mexico
Current Conditions -  °F | °C
As of 6:53 AM on Thursday 23 Oct 2014 (Local Time) from KGUP Reporting Station
Clear Clear  
Wind Chill: 35°   Ceiling: Unl
Heat Index: 35°   Visibility: 10mi
Dew Point: 32°   Wind: 3mph
Humidity: 89%   Direction: 60°ENE
Pressure: 30.31"   Gusts: NA
Location:  35.0898°N, 108.763°W
Report Text: KGUP 231253Z AUTO 06003KT 10SM CLR 02/00 A3031 RMK AO2 SLP204 T00170000
Loading
Personal Weather Stations






























Interactive Weather Map
Tropical Storm Tracking
New forecast layout! Learn more

10-Day Weather Forecast

Advertisements
Track Severe Weather on mobile